Huvudsida
METAR-TAF:

METAR-TAF

Flygplatser :

Kuusamo flygplats

Kuusamo, Finland

latitud: 65-58N, longitud: 029-11E, höjd: 262 m

Aktuellt väderrapport

Denna rapport gjordes för 32 minuter sedan, klockan 20:20 UTC
Vind 2 kt varierande vindriktning
Temperatur -20°C
Fuktighet 77%
Tryck 1028 hPa
Sikt 10 km eller mer
underkylt, okänt

METAR: EFKS 212020Z AUTO VRB02KT 9999 FZUP NCD M20/M23 Q1028

Tid: 22:52 (20:52 UTC)

Väderprognos

Denna rapport gjordes för 3 timmar och 21 minuter sedan, klockan 17:31 UTC
Prognos gäller från 21 kl. 18 UTC till 21 kl. 22 UTC
Vind 5 kt från nordväst
Sikt 10 km eller mer
Inga moln under 1 500 m eller inga cumulonimbus

TAF: EFKS 211731Z 2118/2122 31005KT CAVOK

Aktuella väderrapporter och prognoser från 4000 flygplatser (METAR- och TAF-rapporter).

De tillgängliga stationerna syns som gula och röda prickar på kartan.

För musen över prickarna för att se namnen på stationerna.

Klicka sedan för att få väderrapporter och prognoser.

För att ändra kartan: Klicka på de gröna knapparna med ett svart kors på för att zooma in; den gröna knappen med ett streck på för att zooma ut; eller på de gröna pilarna för angränsande kartor.


METAR-TAF: